Time;durP1;ratioP1;P1;durP2;ratioP2;P2;SDS_P1;SDS_P2;PMS_P1;PMS_P2;Temp;Humidity;BMP_temperature;BMP_pressure;BME280_temperature;BME280_humidity;BME280_pressure;Samples;Min_cycle;Max_cycle;Signal;HPM_P1;HPM_P2
2023/08/20 00:01:23;;;;;;;4.00;2.10;;;;;;;13.78;60.12;102057.88;4989914;28;20140;-78
2023/08/20 00:03:51;;;;;;;5.18;3.20;;;;;;;13.80;59.99;102057.84;4975564;28;20038;-78
2023/08/20 00:06:17;;;;;;;4.70;3.10;;;;;;;13.82;60.22;102063.91;4976540;28;20065;-78
2023/08/20 00:08:42;;;;;;;5.00;2.80;;;;;;;13.75;60.11;102050.13;4978021;28;20659;-77
2023/08/20 00:11:09;;;;;;;4.88;3.13;;;;;;;13.72;60.34;102052.88;4975452;28;20125;-78
2023/08/20 00:13:35;;;;;;;4.93;3.30;;;;;;;13.61;60.24;102044.50;4972322;28;20052;-77
2023/08/20 00:16:01;;;;;;;7.28;2.97;;;;;;;13.56;60.04;102052.47;4992573;28;20022;-76
2023/08/20 00:18:27;;;;;;;4.53;3.15;;;;;;;13.52;60.57;102061.41;4973163;28;20042;-77
2023/08/20 00:20:53;;;;;;;3.38;2.83;;;;;;;13.54;60.52;102059.59;4974607;28;20123;-77
2023/08/20 00:23:19;;;;;;;7.70;3.00;;;;;;;13.56;60.30;102064.75;4975171;28;20599;-76
2023/08/20 00:25:45;;;;;;;9.80;3.40;;;;;;;13.47;60.42;102065.91;4977930;28;20136;-77
2023/08/20 00:28:10;;;;;;;6.78;4.18;;;;;;;13.43;60.69;102057.31;4976773;28;20045;-76
2023/08/20 00:30:36;;;;;;;4.38;2.83;;;;;;;13.44;60.56;102056.38;4973673;28;20034;-76
2023/08/20 00:33:04;;;;;;;7.13;3.05;;;;;;;13.41;60.36;102064.38;4993306;28;20038;-77
2023/08/20 00:35:29;;;;;;;6.90;3.28;;;;;;;13.46;60.05;102057.19;4959142;28;20063;-77
2023/08/20 00:37:55;;;;;;;4.30;2.03;;;;;;;13.43;60.25;102062.56;4991845;28;20140;-78
2023/08/20 00:40:21;;;;;;;9.15;3.75;;;;;;;13.41;60.34;102066.16;4974109;28;20117;-78
2023/08/20 00:42:46;;;;;;;9.35;3.58;;;;;;;13.44;60.20;102058.16;4975770;28;20129;-77
2023/08/20 00:45:12;;;;;;;4.15;2.85;;;;;;;13.41;60.24;102063.53;4991507;28;20042;-76
2023/08/20 00:47:38;;;;;;;3.75;2.35;;;;;;;13.44;60.26;102061.63;4973652;28;20064;-75
2023/08/20 00:50:09;;;;;;;3.90;2.92;;;;;;;13.42;60.29;102063.44;4977864;28;20513;-77
2023/08/20 00:52:35;;;;;;;3.00;2.17;;;;;;;13.43;59.98;102073.06;4974819;28;21989;-76
2023/08/20 00:55:08;;;;;;;6.97;2.83;;;;;;;13.37;59.97;102073.25;4993563;28;20021;-75
2023/08/20 00:57:34;;;;;;;5.47;2.58;;;;;;;13.32;60.18;102072.56;4953716;28;20041;-77
2023/08/20 01:00:00;;;;;;;6.53;2.75;;;;;;;13.30;60.04;102077.00;4995071;28;20022;-76
2023/08/20 01:02:27;;;;;;;2.70;2.00;;;;;;;13.30;60.00;102072.59;4969721;28;20032;-75
2023/08/20 01:04:53;;;;;;;5.72;3.15;;;;;;;13.23;60.16;102075.50;4979181;28;20042;-79
2023/08/20 01:07:33;;;;;;;3.67;2.58;;;;;;;13.16;60.48;102080.06;4979076;28;20045;-78
2023/08/20 01:10:19;;;;;;;3.17;2.10;;;;;;;13.23;59.99;102075.50;4992357;28;20184;-78
2023/08/20 01:12:46;;;;;;;3.63;2.28;;;;;;;13.22;59.81;102074.59;4980784;28;20029;-78
2023/08/20 01:15:14;;;;;;;4.55;2.60;;;;;;;13.13;60.24;102071.44;4981192;28;20026;-76
2023/08/20 01:17:40;;;;;;;3.78;2.50;;;;;;;13.17;60.21;102071.28;4974206;28;20250;-76
2023/08/20 01:20:08;;;;;;;2.33;1.95;;;;;;;13.22;59.89;102076.38;4997982;28;20018;-77
2023/08/20 01:22:45;;;;;;;2.97;2.22;;;;;;;13.15;60.01;102088.00;4952281;28;20030;-77
2023/08/20 01:25:34;;;;;;;10.60;2.42;;;;;;;13.02;60.10;102083.09;4964877;28;20026;-76
2023/08/20 01:28:23;;;;;;;4.20;2.42;;;;;;;13.07;60.11;102083.84;4961450;28;20057;-75
2023/08/20 01:30:49;;;;;;;2.92;2.15;;;;;;;13.01;60.15;102091.06;4981686;28;20073;-76
2023/08/20 01:33:16;;;;;;;8.52;2.75;;;;;;;12.99;60.07;102085.84;4975288;28;20069;-77
2023/08/20 01:35:41;;;;;;;4.38;2.25;;;;;;;13.07;60.00;102085.59;4977481;28;20115;-78
2023/08/20 01:38:14;;;;;;;5.50;2.50;;;;;;;13.09;59.53;102084.66;4962655;28;20137;-76
2023/08/20 01:40:39;;;;;;;4.40;1.63;;;;;;;12.99;59.67;102090.25;4958765;28;20116;-78
2023/08/20 01:43:05;;;;;;;3.28;2.33;;;;;;;12.93;59.90;102095.66;4978328;28;20159;-77
2023/08/20 01:45:30;;;;;;;6.03;3.45;;;;;;;12.86;60.32;102097.63;4978797;28;20065;-78
2023/08/20 01:47:56;;;;;;;6.20;2.70;;;;;;;12.82;60.15;102096.00;4994213;28;20072;-78
2023/08/20 01:50:21;;;;;;;3.70;2.80;;;;;;;12.82;60.20;102101.22;4982121;28;20045;-77
2023/08/20 01:52:47;;;;;;;9.88;2.72;;;;;;;12.78;60.29;102099.59;4984974;28;20061;-77
2023/08/20 01:55:13;;;;;;;2.60;1.85;;;;;;;12.77;60.18;102100.53;4980138;28;20120;-77
2023/08/20 01:57:39;;;;;;;3.72;2.72;;;;;;;12.76;60.25;102101.41;4975397;28;20041;-77
2023/08/20 02:00:06;;;;;;;9.48;3.50;;;;;;;12.74;60.62;102108.50;4979421;28;20022;-78
2023/08/20 02:02:39;;;;;;;7.40;3.20;;;;;;;12.74;60.17;102104.09;4991895;28;20044;-78
2023/08/20 02:05:05;;;;;;;3.13;1.98;;;;;;;12.76;60.09;102101.41;4995402;28;20034;-77
2023/08/20 02:07:30;;;;;;;3.47;2.40;;;;;;;12.72;60.09;102094.56;4979774;28;20034;-76
2023/08/20 02:09:56;;;;;;;3.13;2.22;;;;;;;12.68;60.10;102110.34;4995546;28;20217;-79
2023/08/20 02:12:22;;;;;;;5.65;2.58;;;;;;;12.82;59.71;102116.97;4975285;28;20054;-78
2023/08/20 02:14:47;;;;;;;5.97;2.50;;;;;;;12.79;59.93;102120.56;4991627;28;20124;-76
2023/08/20 02:17:14;;;;;;;5.28;3.22;;;;;;;12.76;60.37;102122.41;4978454;28;20057;-79
2023/08/20 02:19:39;;;;;;;6.03;2.40;;;;;;;12.79;60.08;102127.56;4972722;28;20053;-77
2023/08/20 02:22:05;;;;;;;7.60;3.25;;;;;;;12.80;60.23;102124.03;4960962;28;20048;-77
2023/08/20 02:24:31;;;;;;;4.10;2.70;;;;;;;12.83;60.10;102123.97;4975601;28;20033;-77
2023/08/20 02:26:57;;;;;;;8.73;3.33;;;;;;;12.90;60.06;102120.25;4977615;28;21065;-77
2023/08/20 02:29:22;;;;;;;4.10;2.97;;;;;;;12.88;60.25;102111.56;4973311;28;20409;-76
2023/08/20 02:31:48;;;;;;;7.18;2.67;;;;;;;12.90;60.06;102109.75;4981933;28;20041;-76
2023/08/20 02:34:15;;;;;;;7.95;3.10;;;;;;;12.89;59.78;102113.25;4989755;28;20034;-77
2023/08/20 02:36:41;;;;;;;4.35;2.30;;;;;;;12.84;59.84;102116.03;4976995;28;20100;-76
2023/08/20 02:39:07;;;;;;;4.28;3.10;;;;;;;12.85;60.05;102111.66;4979609;28;20054;-76
2023/08/20 02:41:38;;;;;;;5.43;3.63;;;;;;;12.88;60.36;102122.03;4975889;28;20037;-75
2023/08/20 02:44:03;;;;;;;4.38;2.92;;;;;;;12.90;60.32;102121.09;4997789;28;20061;-76
2023/08/20 02:46:29;;;;;;;6.15;3.80;;;;;;;12.93;60.06;102108.78;4989435;28;20112;-77
2023/08/20 02:48:56;;;;;;;5.45;2.70;;;;;;;12.93;60.01;102122.75;4979095;28;20037;-76
2023/08/20 02:51:22;;;;;;;3.13;2.53;;;;;;;12.88;60.07;102116.81;4977194;28;20624;-76
2023/08/20 02:53:48;;;;;;;7.90;3.08;;;;;;;12.81;59.99;102105.63;4976739;28;20567;-76
2023/08/20 02:56:14;;;;;;;4.78;2.92;;;;;;;12.83;59.83;102103.81;4978040;28;20034;-77
2023/08/20 02:58:39;;;;;;;5.97;2.85;;;;;;;12.82;60.00;102102.09;4978556;28;20136;-78
2023/08/20 03:01:05;;;;;;;4.03;2.17;;;;;;;12.85;59.64;102101.16;4995900;28;20041;-78
2023/08/20 03:03:31;;;;;;;4.85;2.78;;;;;;;12.86;59.71;102108.13;4967153;28;20065;-78
2023/08/20 03:05:56;;;;;;;8.55;3.20;;;;;;;12.77;59.77;102111.88;4971094;28;20408;-78
2023/08/20 03:08:22;;;;;;;6.55;3.45;;;;;;;12.79;60.02;102117.06;4975833;28;20060;-76
2023/08/20 03:10:47;;;;;;;5.55;3.35;;;;;;;12.85;59.95;102111.66;4992944;28;20038;-77
2023/08/20 03:13:13;;;;;;;7.25;3.33;;;;;;;12.84;60.04;102112.53;4965175;28;20129;-76
2023/08/20 03:15:41;;;;;;;5.30;2.90;;;;;;;12.85;60.09;102101.16;4979325;28;20041;-77
2023/08/20 03:18:07;;;;;;;5.57;3.30;;;;;;;12.84;59.72;102104.69;4976227;28;20757;-78
2023/08/20 03:20:33;;;;;;;7.75;3.28;;;;;;;12.86;59.90;102103.72;4995345;28;20168;-76
2023/08/20 03:22:58;;;;;;;4.15;2.50;;;;;;;12.82;59.74;102096.00;4993706;28;20128;-79
2023/08/20 03:25:24;;;;;;;4.25;3.00;;;;;;;12.77;59.65;102098.75;4979005;28;20511;-76
2023/08/20 03:27:51;;;;;;;4.28;3.13;;;;;;;12.67;59.54;102090.28;4964792;28;20053;-77
2023/08/20 03:30:17;;;;;;;6.10;2.92;;;;;;;12.60;60.03;102095.72;4979710;28;20940;-78
2023/08/20 03:32:44;;;;;;;4.55;2.75;;;;;;;12.56;60.11;102088.84;4978598;28;20025;-76
2023/08/20 03:35:09;;;;;;;11.57;3.90;;;;;;;12.49;60.54;102077.66;4964007;28;20503;-78
2023/08/20 03:37:36;;;;;;;5.55;3.25;;;;;;;12.50;60.35;102076.78;4974802;28;20112;-75
2023/08/20 03:40:04;;;;;;;4.95;3.20;;;;;;;12.50;60.39;102080.25;4993839;28;20022;-75
2023/08/20 03:42:30;;;;;;;7.80;3.95;;;;;;;12.45;60.08;102076.91;4976939;28;20239;-76
2023/08/20 03:44:56;;;;;;;4.60;3.70;;;;;;;12.45;60.38;102091.81;4992376;28;20030;-77
2023/08/20 03:47:21;;;;;;;9.55;2.53;;;;;;;12.40;60.42;102084.06;4994075;28;20095;-76
2023/08/20 03:49:48;;;;;;;5.60;3.10;;;;;;;12.40;60.27;102086.69;4972846;28;20528;-75
2023/08/20 03:52:14;;;;;;;7.90;2.85;;;;;;;12.34;60.35;102089.47;4964218;28;20527;-75
2023/08/20 03:54:39;;;;;;;5.43;2.40;;;;;;;12.35;60.12;102092.94;4974007;28;20029;-76
2023/08/20 03:57:05;;;;;;;4.90;2.90;;;;;;;12.38;60.05;102098.97;4983403;28;20034;-75
2023/08/20 03:59:31;;;;;;;7.13;2.75;;;;;;;12.34;60.05;102099.13;4962957;28;20883;-78
2023/08/20 04:01:56;;;;;;;3.90;2.58;;;;;;;12.33;60.14;102102.63;4989963;28;20067;-78
2023/08/20 04:04:22;;;;;;;2.83;1.83;;;;;;;12.36;59.89;102102.56;4990906;28;20042;-77
2023/08/20 04:06:48;;;;;;;4.68;2.47;;;;;;;12.35;60.13;102092.94;4978487;28;20699;-77
2023/08/20 04:09:13;;;;;;;10.35;2.50;;;;;;;12.37;60.13;102099.00;4974067;28;20479;-78
2023/08/20 04:11:38;;;;;;;7.68;3.08;;;;;;;12.37;60.09;102094.63;4975167;28;20042;-78
2023/08/20 04:14:04;;;;;;;3.30;3.00;;;;;;;12.41;60.01;102103.28;4979135;28;20034;-76
2023/08/20 04:16:30;;;;;;;5.55;2.70;;;;;;;12.38;60.22;102101.59;4978405;28;20103;-77
2023/08/20 04:18:56;;;;;;;4.53;2.00;;;;;;;12.36;60.04;102097.31;4989150;28;20540;-75
2023/08/20 04:21:22;;;;;;;4.10;2.08;;;;;;;12.42;60.13;102104.97;4972888;28;20026;-76
2023/08/20 04:23:47;;;;;;;6.95;2.33;;;;;;;12.43;60.12;102104.09;4970255;28;20053;-78
2023/08/20 04:26:13;;;;;;;7.65;3.40;;;;;;;12.41;59.82;102098.88;4960949;28;20026;-76
2023/08/20 04:28:38;;;;;;;4.10;3.17;;;;;;;12.40;60.19;102109.41;4974772;28;20077;-77
2023/08/20 04:31:04;;;;;;;4.63;2.80;;;;;;;12.45;59.96;102112.78;4979875;28;20061;-77
2023/08/20 04:33:45;;;;;;;9.20;3.38;;;;;;;12.41;60.16;102098.88;4963381;28;20065;-78
2023/08/20 04:36:13;;;;;;;5.28;2.85;;;;;;;12.38;60.32;102090.22;4972959;28;20041;-75
2023/08/20 04:38:38;;;;;;;5.72;2.83;;;;;;;12.42;60.65;102092.75;4990366;28;20038;-77
2023/08/20 04:41:04;;;;;;;5.28;3.10;;;;;;;12.44;60.62;102096.16;4979021;28;20042;-76
2023/08/20 04:43:31;;;;;;;5.97;3.33;;;;;;;12.49;60.72;102106.50;4954046;28;20104;-78
2023/08/20 04:45:58;;;;;;;6.15;3.63;;;;;;;12.54;60.83;102102.03;4963623;28;20044;-75
2023/08/20 04:48:24;;;;;;;8.95;2.90;;;;;;;12.59;60.81;102104.50;4979507;28;20099;-75
2023/08/20 04:50:50;;;;;;;4.03;2.35;;;;;;;12.63;60.43;102111.38;4963904;28;20029;-75
2023/08/20 04:53:18;;;;;;;6.20;2.60;;;;;;;12.69;60.74;102109.47;4981012;28;20128;-76
2023/08/20 04:55:45;;;;;;;7.40;3.90;;;;;;;12.81;60.66;102115.28;4981073;28;20041;-78
2023/08/20 04:58:11;;;;;;;4.82;3.20;;;;;;;12.94;60.34;102115.75;4982763;28;20038;-76
2023/08/20 05:00:36;;;;;;;6.90;3.30;;;;;;;12.96;60.25;102114.81;4957206;28;20109;-78
2023/08/20 05:03:08;;;;;;;9.23;4.28;;;;;;;13.00;60.40;102116.41;4994411;28;20512;-78
2023/08/20 05:05:34;;;;;;;5.75;2.17;;;;;;;13.08;60.25;102116.19;4979437;28;20044;-76
2023/08/20 05:08:01;;;;;;;7.80;3.17;;;;;;;13.12;60.34;102120.44;4994656;28;20041;-76
2023/08/20 05:10:26;;;;;;;6.20;3.00;;;;;;;13.22;60.63;102121.84;4982868;28;20052;-78
2023/08/20 05:12:52;;;;;;;13.65;3.58;;;;;;;13.32;60.34;102133.81;4975970;28;20084;-79
2023/08/20 05:15:17;;;;;;;4.90;3.42;;;;;;;13.28;60.59;102131.31;4979310;28;20030;-79
2023/08/20 05:17:44;;;;;;;8.82;3.22;;;;;;;13.46;60.54;102138.63;4978833;28;20050;-78
2023/08/20 05:20:10;;;;;;;6.88;3.08;;;;;;;13.74;60.94;102142.97;4985437;28;20037;-78
2023/08/20 05:22:35;;;;;;;7.55;3.08;;;;;;;14.15;58.75;102132.84;4978842;28;20034;-77
2023/08/20 05:25:01;;;;;;;7.72;2.75;;;;;;;14.48;57.52;102143.09;4982594;28;20517;-78
2023/08/20 05:27:27;;;;;;;3.83;2.63;;;;;;;;;;4982429;28;20069;-79
2023/08/20 05:29:56;;;;;;;5.60;2.38;;;;;;;15.10;57.52;102152.16;4977744;28;20042;-77
2023/08/20 05:32:21;;;;;;;8.68;3.15;;;;;;;15.31;55.31;102153.16;4963733;28;20537;-78
2023/08/20 05:34:47;;;;;;;10.40;2.33;;;;;;;17.17;52.42;102151.19;4981266;28;20034;-79
2023/08/20 05:37:12;;;;;;;5.35;2.47;;;;;;;19.17;47.31;102148.84;4994046;28;20061;-77
2023/08/20 05:39:42;;;;;;;6.88;2.40;;;;;;;20.69;45.36;102147.75;4970241;28;20076;-76
2023/08/20 05:42:07;;;;;;;6.38;2.22;;;;;;;21.59;42.88;102145.53;4993200;28;20040;-77
2023/08/20 05:44:33;;;;;;;5.13;1.60;;;;;;;22.41;40.48;102147.97;4974836;28;20145;-77
2023/08/20 05:47:01;;;;;;;8.93;2.13;;;;;;;23.10;39.82;102148.34;4981637;28;20400;-75
2023/08/20 05:49:27;;;;;;;10.23;2.13;;;;;;;23.45;36.16;102139.53;4979669;28;20104;-76
2023/08/20 05:51:53;;;;;;;6.93;1.58;;;;;;;23.78;37.87;102139.63;4977141;28;21548;-76
2023/08/20 05:54:19;;;;;;;5.38;1.77;;;;;;;24.12;35.75;102139.72;4977710;28;20034;-79
2023/08/20 05:56:45;;;;;;;5.43;1.70;;;;;;;24.56;37.33;102142.53;4975549;28;20030;-77
2023/08/20 05:59:11;;;;;;;4.72;1.67;;;;;;;24.98;37.16;102148.09;4978804;28;20034;-77
2023/08/20 06:01:37;;;;;;;3.85;1.52;;;;;;;25.31;35.15;102155.16;4990327;28;20037;-77
2023/08/20 06:04:05;;;;;;;3.88;1.63;;;;;;;25.31;34.97;102149.81;4942664;28;20044;-77
2023/08/20 06:06:30;;;;;;;8.68;1.73;;;;;;;25.10;34.60;102151.56;4988996;28;20608;-78
2023/08/20 06:08:56;;;;;;;2.90;0.82;;;;;;;25.92;35.03;102150.97;4990976;28;20104;-77
2023/08/20 06:11:21;;;;;;;2.90;1.17;;;;;;;26.02;34.30;102155.41;4980561;28;20042;-77
2023/08/20 06:13:47;;;;;;;4.80;2.08;;;;;;;26.67;32.90;102145.25;4977286;28;20034;-76
2023/08/20 06:16:13;;;;;;;5.80;1.55;;;;;;;27.24;31.54;102150.03;4992795;28;20030;-76
2023/08/20 06:18:38;;;;;;;4.30;2.00;;;;;;;27.51;31.88;102147.44;4975392;28;20669;-77
2023/08/20 06:21:04;;;;;;;5.32;1.55;;;;;;;27.75;30.82;102146.19;4979692;28;20120;-77
2023/08/20 06:23:30;;;;;;;5.57;2.40;;;;;;;26.14;33.42;102145.47;4991398;28;20823;-76
2023/08/20 06:25:55;;;;;;;11.00;2.45;;;;;;;26.80;32.33;102144.16;4977325;28;20854;-76
2023/08/20 06:28:21;;;;;;;7.40;1.80;;;;;;;26.56;32.28;102142.66;4977390;28;20120;-76
2023/08/20 06:30:46;;;;;;;4.60;2.08;;;;;;;27.68;30.29;102142.38;4991800;28;20753;-76
2023/08/20 06:33:12;;;;;;;5.35;2.53;;;;;;;27.80;29.61;102141.22;4974430;28;20037;-77
2023/08/20 06:35:38;;;;;;;4.88;2.40;;;;;;;28.04;30.97;102139.88;4991025;28;20687;-77
2023/08/20 06:38:04;;;;;;;4.20;1.67;;;;;;;28.56;28.90;102140.22;4989044;28;20893;-76
2023/08/20 06:40:30;;;;;;;6.22;2.05;;;;;;;29.00;28.34;102139.56;4988879;28;20033;-77
2023/08/20 06:42:56;;;;;;;7.72;2.38;;;;;;;29.24;28.67;102144.31;4974602;28;20034;-76
2023/08/20 06:45:21;;;;;;;4.95;2.15;;;;;;;28.92;28.96;102143.81;4972109;28;20404;-76
2023/08/20 06:47:47;;;;;;;4.85;2.95;;;;;;;29.82;27.99;102143.78;4988836;28;20053;-76
2023/08/20 06:50:12;;;;;;;7.47;2.10;;;;;;;30.58;27.23;102145.72;4978434;28;20121;-76
2023/08/20 06:52:38;;;;;;;4.40;2.10;;;;;;;29.97;28.01;102146.72;4975345;28;20397;-76
2023/08/20 06:55:04;;;;;;;7.07;1.70;;;;;;;30.25;26.82;102144.72;4977252;28;20369;-77
2023/08/20 06:57:29;;;;;;;8.23;2.17;;;;;;;30.91;27.22;102147.63;4979008;28;20672;-75
2023/08/20 06:59:55;;;;;;;4.10;1.10;;;;;;;31.24;27.74;102150.38;4989442;28;20083;-78
2023/08/20 07:02:21;;;;;;;7.75;1.83;;;;;;;31.76;26.34;102144.59;4989701;28;20037;-76
2023/08/20 07:04:46;;;;;;;8.23;2.13;;;;;;;31.45;25.62;102141.75;4986707;28;20037;-77
2023/08/20 07:07:12;;;;;;;8.77;2.42;;;;;;;29.28;27.38;102151.09;4976607;28;20121;-76
2023/08/20 07:09:39;;;;;;;5.88;2.17;;;;;;;30.62;25.96;102151.59;4973211;28;20029;-78
2023/08/20 07:12:05;;;;;;;5.55;2.05;;;;;;;31.30;25.17;102144.31;4991467;28;20042;-78
2023/08/20 07:14:30;;;;;;;7.80;2.13;;;;;;;29.68;28.00;102160.53;4975301;28;20053;-76
2023/08/20 07:16:56;;;;;;;5.35;2.45;;;;;;;28.69;26.69;102153.34;4977494;28;20541;-79
2023/08/20 07:19:21;;;;;;;8.70;1.77;;;;;;;29.39;28.12;102156.22;4977115;28;20513;-77
2023/08/20 07:21:47;;;;;;;8.05;2.13;;;;;;;31.06;24.78;102156.78;4981747;28;20022;-79
2023/08/20 07:24:12;;;;;;;8.68;1.77;;;;;;;29.99;25.59;102150.94;4964160;28;20396;-80
2023/08/20 07:26:38;;;;;;;3.45;1.42;;;;;;;31.46;26.24;102159.66;4975435;28;20092;-79
2023/08/20 07:29:03;;;;;;;8.38;2.13;;;;;;;31.31;24.35;102162.19;4979298;28;20057;-79
2023/08/20 07:31:31;;;;;;;3.45;1.90;;;;;;;32.09;25.74;102166.19;4977637;28;20611;-78
2023/08/20 07:33:58;;;;;;;15.13;2.50;;;;;;;32.35;23.79;102155.94;4973479;28;20700;-78
2023/08/20 07:36:27;;;;;;;5.65;1.77;;;;;;;33.15;22.92;102159.41;4980436;28;20065;-77
2023/08/20 07:38:54;;;;;;;7.70;2.58;;;;;;;32.94;22.77;102166.28;4990204;28;21821;-77
2023/08/20 07:41:20;;;;;;;7.40;1.65;;;;;;;34.08;22.27;102177.13;4968627;28;20073;-77
2023/08/20 07:43:47;;;;;;;5.47;1.52;;;;;;;34.77;21.26;102175.94;4986254;28;20045;-79
2023/08/20 07:46:13;;;;;;;8.20;1.88;;;;;;;34.69;21.30;102179.66;4980035;28;20029;-80
2023/08/20 07:48:39;;;;;;;6.10;1.63;;;;;;;33.04;23.14;102171.50;4960185;28;20041;-79
2023/08/20 07:51:05;;;;;;;4.03;1.20;;;;;;;33.78;21.84;102174.44;4961004;28;20497;-79
2023/08/20 07:53:32;;;;;;;5.60;1.48;;;;;;;33.52;21.45;102169.41;4993064;28;20050;-80
2023/08/20 07:56:00;;;;;;;5.82;1.33;;;;;;;31.34;23.77;102175.38;4979121;28;20111;-77
2023/08/20 07:58:25;;;;;;;8.20;1.35;;;;;;;31.58;24.32;102174.53;4976053;28;20045;-77
2023/08/20 08:00:51;;;;;;;8.15;1.35;;;;;;;31.53;23.86;102171.50;4978147;28;20120;-78
2023/08/20 08:03:17;;;;;;;3.45;0.90;;;;;;;31.19;24.72;102176.03;4975710;28;20120;-78
2023/08/20 08:05:49;;;;;;;4.47;0.90;;;;;;;30.32;25.18;102177.28;4995879;28;20049;-78
2023/08/20 08:08:18;;;;;;;4.20;1.00;;;;;;;30.24;25.67;102171.84;4977152;28;20042;-77
2023/08/20 08:10:45;;;;;;;5.93;1.33;;;;;;;29.48;27.86;102178.69;4964879;28;20026;-77
2023/08/20 08:13:18;;;;;;;3.30;0.68;;;;;;;31.43;24.86;102177.06;4976237;28;20065;-78
2023/08/20 08:15:44;;;;;;;7.75;0.70;;;;;;;31.15;24.66;102173.84;4976181;28;20030;-78
2023/08/20 08:18:09;;;;;;;3.58;0.50;;;;;;;31.52;24.92;102167.97;4975203;28;20060;-76
2023/08/20 08:20:35;;;;;;;2.72;1.00;;;;;;;31.53;24.32;102169.63;4993071;28;20033;-78
2023/08/20 08:23:01;;;;;;;7.50;1.27;;;;;;;31.39;24.38;102164.91;4992978;28;20389;-78
2023/08/20 08:25:26;;;;;;;6.25;1.00;;;;;;;30.94;25.00;102167.03;4977810;28;20088;-78
2023/08/20 08:27:52;;;;;;;4.88;0.90;;;;;;;31.05;24.75;102168.59;4990722;28;20037;-78
2023/08/20 08:30:17;;;;;;;6.63;1.27;;;;;;;31.42;24.06;102169.97;4955649;28;20038;-78
2023/08/20 08:32:43;;;;;;;2.63;0.45;;;;;;;31.34;24.53;102168.13;4984286;28;20040;-78
2023/08/20 08:35:08;;;;;;;4.28;0.57;;;;;;;30.75;25.17;102168.16;4983948;28;20029;-76
2023/08/20 08:37:34;;;;;;;5.07;0.50;;;;;;;31.16;24.30;102165.59;4980884;28;20150;-79
2023/08/20 08:39:59;;;;;;;3.83;0.60;;;;;;;29.89;26.14;102174.50;4982798;28;20964;-79
2023/08/20 08:42:25;;;;;;;3.65;0.38;;;;;;;30.23;25.95;102167.47;4979915;28;20030;-77
2023/08/20 08:44:51;;;;;;;7.68;0.45;;;;;;;31.15;24.81;102161.19;4968954;28;20214;-77
2023/08/20 08:47:18;;;;;;;6.40;0.40;;;;;;;30.84;24.71;102160.09;4979706;28;20030;-77
2023/08/20 08:49:46;;;;;;;6.60;0.68;;;;;;;30.83;24.85;102169.22;4965817;28;20060;-76
2023/08/20 08:52:11;;;;;;;5.50;0.60;;;;;;;31.58;24.19;102170.00;4979154;28;20026;-76
2023/08/20 08:54:37;;;;;;;4.57;0.63;;;;;;;30.48;25.35;102171.94;4956603;28;20049;-78
2023/08/20 08:57:02;;;;;;;4.38;0.57;;;;;;;28.63;27.28;102162.84;4961753;28;20057;-78
2023/08/20 08:59:28;;;;;;;7.25;0.60;;;;;;;28.50;28.15;102173.09;4977384;28;20644;-78
2023/08/20 09:01:56;;;;;;;5.47;0.73;;;;;;;29.64;26.61;102180.69;4977910;28;20052;-76
2023/08/20 09:04:22;;;;;;;5.45;0.50;;;;;;;29.64;26.44;102183.38;4976273;28;20038;-77
2023/08/20 09:06:51;;;;;;;4.22;0.93;;;;;;;29.64;27.69;102194.16;4983206;28;20705;-78
2023/08/20 09:09:19;;;;;;;3.50;0.30;;;;;;;29.37;26.25;102190.53;4997617;28;20046;-78
2023/08/20 09:11:45;;;;;;;4.85;0.80;;;;;;;27.89;28.91;102187.84;4978484;28;20583;-77
2023/08/20 09:14:30;;;;;;;7.18;0.50;;;;;;;27.45;31.08;102187.44;4975911;28;20056;-76
2023/08/20 09:17:01;;;;;;;3.88;0.60;;;;;;;26.67;31.28;102185.50;4955186;28;20140;-77
2023/08/20 09:19:36;;;;;;;2.65;0.38;;;;;;;26.76;31.65;102189.19;4956463;28;20096;-79
2023/08/20 09:22:02;;;;;;;5.18;0.50;;;;;;;25.85;31.88;102183.63;4993359;28;20053;-78
2023/08/20 09:24:59;;;;;;;7.55;3.10;;;;;;;26.92;31.13;102185.13;4976406;28;20046;-78
2023/08/20 09:27:25;;;;;;;5.95;0.30;;;;;;;26.68;31.92;102183.66;4988051;28;20594;-77
2023/08/20 09:29:55;;;;;;;5.22;0.85;;;;;;;26.82;32.12;102179.72;4954531;28;20038;-77
2023/08/20 09:32:23;;;;;;;3.70;0.40;;;;;;;27.08;30.58;102178.22;4976763;28;20026;-80
2023/08/20 09:34:50;;;;;;;5.05;0.80;;;;;;;26.46;31.34;102190.88;4991552;28;20120;-77
2023/08/20 09:37:21;;;;;;;4.28;0.50;;;;;;;26.74;31.02;102193.84;4972656;28;20100;-78
2023/08/20 09:39:47;;;;;;;3.10;0.65;;;;;;;26.94;31.83;102189.38;5001811;28;20068;-78
2023/08/20 09:42:14;;;;;;;2.00;0.43;;;;;;;26.68;31.81;102189.84;4996816;28;20049;-77
2023/08/20 09:44:41;;;;;;;4.47;0.82;;;;;;;25.73;32.64;102187.31;4955634;28;20072;-79
2023/08/20 09:47:08;;;;;;;3.05;0.77;;;;;;;25.46;32.20;102185.13;4987600;28;20239;-79
2023/08/20 09:49:42;;;;;;;2.95;0.40;;;;;;;25.27;32.12;102193.84;4995421;28;20090;-79
2023/08/20 09:52:10;;;;;;;4.65;0.50;;;;;;;25.87;31.71;102204.91;4996074;28;20030;-77
2023/08/20 09:54:59;;;;;;;2.97;0.50;;;;;;;25.91;31.06;102205.47;4993410;28;20041;-81
2023/08/20 09:57:38;;;;;;;3.70;0.43;;;;;;;25.16;32.80;102193.88;4994225;28;20037;-79
2023/08/20 10:00:09;;;;;;;2.35;0.40;;;;;;;26.16;30.95;102202.44;4995035;28;20126;-79
2023/08/20 10:02:42;;;;;;;3.95;0.30;;;;;;;25.14;33.32;102190.47;4982434;28;20608;-77
2023/08/20 10:05:10;;;;;;;4.22;0.47;;;;;;;25.95;32.32;102204.25;4980339;28;20172;-79
2023/08/20 10:07:36;;;;;;;5.45;0.82;;;;;;;25.32;32.79;102198.81;4977696;28;20125;-77
2023/08/20 10:10:05;;;;;;;3.72;0.30;;;;;;;26.24;31.61;102194.56;4966276;28;20067;-77
2023/08/20 10:12:31;;;;;;;4.05;0.20;;;;;;;26.82;30.75;102196.66;4977164;28;20484;-79
2023/08/20 10:14:58;;;;;;;2.90;0.57;;;;;;;27.37;30.52;102203.44;4989689;28;20014;-78
2023/08/20 10:17:24;;;;;;;4.22;0.60;;;;;;;26.67;30.77;102209.63;4981294;28;20888;-76
2023/08/20 10:19:53;;;;;;;4.00;0.25;;;;;;;27.01;29.51;102195.88;4975055;28;20045;-77
2023/08/20 10:22:20;;;;;;;2.20;0.52;;;;;;;26.33;29.98;102197.44;4972781;28;20148;-78
2023/08/20 10:24:52;;;;;;;3.70;0.22;;;;;;;26.77;29.59;102190.03;4983331;28;20068;-77
2023/08/20 10:27:31;;;;;;;3.85;0.75;;;;;;;26.20;30.46;102194.97;4995124;28;20041;-76
2023/08/20 10:29:59;;;;;;;2.90;0.65;;;;;;;25.70;31.26;102192.94;4965433;28;20137;-78
2023/08/20 10:32:44;;;;;;;2.38;0.10;;;;;;;26.56;30.69;102201.66;4974428;28;20242;-77
2023/08/20 10:35:09;;;;;;;4.15;0.50;;;;;;;26.74;30.37;102190.28;4980859;28;20042;-78
2023/08/20 10:37:37;;;;;;;4.05;0.55;;;;;;;26.29;30.23;102195.03;4976710;28;20092;-78
2023/08/20 10:40:04;;;;;;;2.25;0.47;;;;;;;26.83;30.49;102192.16;5000852;28;20033;-78
2023/08/20 10:42:30;;;;;;;2.22;0.35;;;;;;;26.55;30.72;102199.94;4992957;28;20037;-77
2023/08/20 10:45:05;;;;;;;4.57;0.30;;;;;;;26.87;29.55;102196.25;4983475;28;20092;-78
2023/08/20 10:47:44;;;;;;;1.70;0.43;;;;;;;27.79;29.16;102189.72;4959150;28;20038;-77
2023/08/20 10:50:17;;;;;;;6.93;0.20;;;;;;;27.72;28.65;102186.78;4961197;28;20036;-77
2023/08/20 10:52:48;;;;;;;3.53;0.63;;;;;;;28.43;28.07;102183.59;4959926;28;20036;-77
2023/08/20 10:55:14;;;;;;;;;;;;;;;27.10;28.81;102191.50;4977525;28;20044;-77
2023/08/20 10:57:41;;;;;;;4.32;0.45;;;;;;;27.14;28.67;102184.03;4953650;28;19960;-77
2023/08/20 11:00:11;;;;;;;2.05;0.30;;;;;;;25.78;29.81;102195.84;4982128;28;20064;-81
2023/08/20 11:02:38;;;;;;;1.13;0.20;;;;;;;25.29;30.78;102194.56;4991633;28;20041;-77
2023/08/20 11:05:04;;;;;;;2.60;0.47;;;;;;;25.22;30.89;102190.69;4980334;28;20034;-79
2023/08/20 11:07:31;;;;;;;2.50;0.40;;;;;;;25.93;29.96;102193.66;4961368;28;20034;-78
2023/08/20 11:09:57;;;;;;;3.00;0.45;;;;;;;25.20;30.66;102195.31;4980458;28;20026;-79
2023/08/20 11:12:23;;;;;;;4.20;0.20;;;;;;;25.61;30.33;102199.09;4975967;28;20461;-78
2023/08/20 11:14:49;;;;;;;4.95;0.40;;;;;;;24.44;32.54;102192.47;4964305;28;20038;-79
2023/08/20 11:17:15;;;;;;;3.80;0.55;;;;;;;24.51;31.98;102199.03;4988391;28;20031;-80
2023/08/20 11:19:40;;;;;;;2.53;0.13;;;;;;;25.43;31.17;102201.44;4963727;28;20649;-77
2023/08/20 11:22:06;;;;;;;1.88;0.20;;;;;;;26.32;29.38;102188.56;4979774;28;20535;-77
2023/08/20 11:24:32;;;;;;;2.75;0.30;;;;;;;27.50;27.80;102186.03;4975324;28;20091;-78
2023/08/20 11:26:57;;;;;;;3.35;0.20;;;;;;;27.10;27.83;102189.69;4979233;28;20026;-79